createdAt,value
2022-11-19T00:01:04.374Z,47.79
2022-11-19T00:06:08.060Z,47.85
2022-11-19T00:11:13.032Z,47.92
2022-11-19T00:16:15.820Z,48.00
2022-11-19T00:21:18.605Z,48.18
2022-11-19T00:26:22.825Z,48.03
2022-11-19T00:31:25.651Z,47.96
2022-11-19T00:36:28.597Z,48.21
2022-11-19T00:41:32.676Z,48.27
2022-11-19T00:46:35.514Z,48.29
2022-11-19T00:51:38.288Z,48.14
2022-11-19T00:56:42.425Z,48.45
2022-11-19T01:01:45.257Z,48.35
2022-11-19T01:06:48.070Z,48.57
2022-11-19T01:11:52.190Z,48.33
2022-11-19T01:16:54.924Z,48.45
2022-11-19T01:21:59.749Z,48.37
2022-11-19T01:27:03.915Z,48.61
2022-11-19T01:32:07.046Z,48.64
2022-11-19T01:37:09.816Z,48.62
2022-11-19T01:42:36.570Z,48.63
2022-11-19T01:47:39.338Z,48.80
2022-11-19T01:52:42.254Z,49.03
2022-11-19T01:57:46.362Z,48.79
2022-11-19T02:02:49.192Z,48.97
2022-11-19T02:07:54.212Z,49.03
2022-11-19T02:13:02.637Z,49.01
2022-11-19T02:18:23.465Z,48.93
2022-11-19T02:23:36.197Z,49.04
2022-11-19T02:28:41.245Z,49.31
2022-11-19T02:33:48.385Z,49.50
2022-11-19T02:38:52.730Z,49.51
2022-11-19T02:44:20.890Z,49.85
2022-11-19T02:49:26.803Z,50.08
2022-11-19T02:54:29.555Z,50.34
2022-11-19T02:59:51.599Z,50.30
2022-11-19T03:04:55.727Z,50.20
2022-11-19T03:10:00.850Z,50.07
2022-11-19T03:15:23.665Z,50.16
2022-11-19T03:20:29.652Z,50.33
2022-11-19T03:25:34.118Z,50.65
2022-11-19T03:30:37.003Z,50.87
2022-11-19T03:35:44.571Z,51.03
2022-11-19T03:40:47.459Z,51.76
2022-11-19T03:45:50.254Z,51.94
2022-11-19T03:50:55.920Z,52.02
2022-11-19T03:55:59.809Z,52.57
2022-11-19T04:01:02.613Z,52.72
2022-11-19T04:06:07.031Z,52.85
2022-11-19T04:16:11.682Z,53.31
2022-11-19T04:21:15.813Z,53.53
2022-11-19T04:26:18.596Z,53.55
2022-11-19T04:31:21.358Z,53.81
2022-11-19T04:36:25.483Z,53.90
2022-11-19T04:41:28.211Z,53.98
2022-11-19T04:46:31.171Z,53.94
2022-11-19T04:51:35.258Z,54.35
2022-11-19T04:56:38.105Z,54.51
2022-11-19T05:01:41.028Z,54.88
2022-11-19T05:06:45.189Z,54.67
2022-11-19T05:11:47.977Z,54.72
2022-11-19T05:16:50.819Z,55.08
2022-11-19T05:21:54.916Z,55.13
2022-11-19T05:26:57.770Z,55.24
2022-11-19T05:32:00.728Z,55.71
2022-11-19T05:37:04.909Z,55.54
2022-11-19T05:42:07.751Z,55.66
2022-11-19T05:47:10.549Z,55.68
2022-11-19T05:52:14.864Z,55.75
2022-11-19T05:57:17.684Z,56.05
2022-11-19T06:02:20.463Z,55.81
2022-11-19T06:07:25.007Z,55.84
2022-11-19T06:12:27.800Z,56.11
2022-11-19T06:17:30.574Z,56.38
2022-11-19T06:22:34.842Z,56.21
2022-11-19T06:27:37.670Z,56.09
2022-11-19T06:32:40.840Z,56.37
2022-11-19T06:37:45.046Z,56.46
2022-11-19T06:42:50.938Z,56.39
2022-11-19T06:47:54.157Z,56.74
2022-11-19T06:52:58.338Z,56.41
2022-11-19T06:58:03.022Z,56.38
2022-11-19T07:03:05.827Z,56.84
2022-11-19T07:08:09.957Z,56.48
2022-11-19T07:13:13.146Z,55.15
2022-11-19T07:18:15.901Z,55.02
2022-11-19T07:23:20.551Z,55.09
2022-11-19T07:28:23.396Z,54.67
2022-11-19T07:33:26.173Z,54.53
2022-11-19T07:38:34.218Z,54.35
2022-11-19T07:43:39.445Z,54.34
2022-11-19T07:48:42.291Z,54.30
2022-11-19T07:53:48.284Z,54.14
2022-11-19T07:58:51.089Z,53.98
2022-11-19T08:03:56.504Z,54.35
2022-11-19T08:09:01.028Z,54.81
2022-11-19T08:14:03.819Z,53.81
2022-11-19T08:19:08.312Z,53.30
2022-11-19T08:24:12.604Z,53.74
2022-11-19T08:29:16.897Z,54.33
2022-11-19T08:34:20.011Z,53.25
2022-11-19T08:39:24.420Z,53.68
2022-11-19T08:44:27.261Z,53.47
2022-11-19T08:49:30.089Z,52.92
2022-11-19T08:54:34.288Z,53.08
2022-11-19T08:59:37.059Z,53.30
2022-11-19T09:04:41.351Z,39.48
2022-11-19T09:09:45.459Z,32.35
2022-11-19T09:14:48.220Z,42.58
2022-11-19T09:19:51.237Z,41.93
2022-11-19T09:24:55.412Z,41.21
2022-11-19T09:29:58.153Z,42.16
2022-11-19T09:35:00.903Z,43.29
2022-11-19T09:40:05.915Z,43.59
2022-11-19T09:45:14.690Z,43.85
2022-11-19T09:50:18.972Z,44.36
2022-11-19T09:55:31.595Z,44.46
2022-11-19T10:00:34.409Z,44.37
2022-11-19T10:05:40.677Z,45.19
2022-11-19T10:10:48.227Z,45.43
2022-11-19T10:16:10.243Z,45.53
2022-11-19T10:21:15.588Z,46.47
2022-11-19T10:26:20.403Z,46.91
2022-11-19T10:31:28.761Z,46.64
2022-11-19T10:36:34.142Z,46.06
2022-11-19T10:41:40.858Z,45.91
2022-11-19T10:46:43.743Z,45.93
2022-11-19T10:51:46.593Z,45.71
2022-11-19T10:56:50.808Z,45.77
2022-11-19T11:01:54.946Z,45.75
2022-11-19T11:06:58.614Z,45.69
2022-11-19T11:12:23.423Z,45.60
2022-11-19T11:17:26.934Z,45.41
2022-11-19T11:22:29.700Z,45.87
2022-11-19T11:27:34.318Z,45.43
2022-11-19T11:32:37.420Z,45.64
2022-11-19T11:37:40.123Z,45.52
2022-11-19T11:42:44.360Z,45.66
2022-11-19T11:47:47.165Z,45.54
2022-11-19T11:52:51.321Z,45.32
2022-11-19T11:57:56.149Z,45.79
2022-11-19T12:03:02.746Z,45.44
2022-11-19T12:08:05.961Z,45.23
2022-11-19T12:13:43.177Z,45.17
2022-11-19T12:18:49.361Z,45.11
2022-11-19T12:24:00.077Z,44.97
2022-11-19T12:29:08.630Z,44.48
2022-11-19T12:34:33.461Z,44.54
2022-11-19T12:39:40.464Z,44.71
2022-11-19T12:44:47.869Z,44.85
2022-11-19T12:50:02.945Z,44.50
2022-11-19T12:55:10.175Z,44.42
2022-11-19T13:00:16.127Z,44.45
2022-11-19T13:05:19.833Z,44.34
2022-11-19T13:10:23.870Z,44.40
2022-11-19T13:15:29.899Z,44.68
2022-11-19T13:20:34.828Z,44.66
2022-11-19T13:25:40.067Z,45.10
2022-11-19T13:30:44.689Z,45.21
2022-11-19T13:35:48.504Z,45.20
2022-11-19T13:40:53.172Z,45.00
2022-11-19T13:46:05.691Z,45.24
2022-11-19T13:51:09.897Z,45.51
2022-11-19T13:56:15.442Z,45.60
2022-11-19T14:01:28.857Z,41.00
2022-11-19T14:07:10.090Z,44.02
2022-11-19T14:12:32.992Z,45.04
2022-11-19T14:17:57.758Z,45.13
2022-11-19T14:23:26.303Z,45.23
2022-11-19T14:28:47.468Z,45.72
2022-11-19T14:34:04.364Z,45.48
2022-11-19T14:39:13.158Z,45.50
2022-11-19T14:44:35.834Z,45.84
2022-11-19T14:49:40.034Z,45.93
2022-11-19T14:54:44.457Z,46.03
2022-11-19T14:59:48.794Z,46.27
2022-11-19T15:04:56.169Z,46.52
2022-11-19T15:10:27.469Z,46.63
2022-11-19T15:15:34.413Z,46.79
2022-11-19T15:20:44.348Z,47.01
2022-11-19T15:25:49.650Z,46.75
2022-11-19T15:30:59.379Z,46.81
2022-11-19T15:36:32.715Z,46.87
2022-11-19T15:41:38.070Z,46.70
2022-11-19T15:46:44.003Z,46.34
2022-11-19T15:51:59.481Z,46.19
2022-11-19T15:57:03.782Z,45.51
2022-11-19T16:02:15.291Z,44.31
2022-11-19T16:07:23.128Z,43.16
2022-11-19T16:12:43.905Z,43.13
2022-11-19T16:17:48.569Z,43.42
2022-11-19T16:22:56.193Z,42.69
2022-11-19T16:28:01.542Z,43.57
2022-11-19T16:33:04.712Z,43.09
2022-11-19T16:38:13.244Z,43.32
2022-11-19T16:43:16.130Z,43.35
2022-11-19T16:49:00.134Z,43.42
2022-11-19T16:54:05.206Z,43.31
2022-11-19T16:59:08.085Z,42.86
2022-11-19T17:04:13.543Z,42.57
2022-11-19T17:09:32.189Z,42.22
2022-11-19T17:14:55.497Z,41.65
2022-11-19T17:19:58.468Z,41.88
2022-11-19T17:25:04.222Z,41.89
2022-11-19T17:30:10.301Z,42.10
2022-11-19T17:35:34.380Z,41.98
2022-11-19T17:40:38.868Z,42.04
2022-11-19T17:45:41.698Z,41.97
2022-11-19T17:50:44.432Z,41.93
2022-11-19T17:55:48.772Z,42.12
2022-11-19T18:00:51.664Z,42.16
2022-11-19T18:05:54.536Z,42.14
2022-11-19T18:10:58.740Z,41.91
2022-11-19T18:16:01.776Z,42.09
2022-11-19T18:21:09.329Z,41.99
2022-11-19T18:26:14.132Z,41.81
2022-11-19T18:31:17.851Z,42.00
2022-11-19T18:36:20.749Z,42.15
2022-11-19T18:41:24.892Z,41.86
2022-11-19T18:46:28.058Z,41.94
2022-11-19T18:51:31.642Z,41.88
2022-11-19T18:56:36.140Z,41.92
2022-11-19T19:01:39.401Z,41.78
2022-11-19T19:06:42.377Z,41.75
2022-11-19T19:12:05.399Z,42.03
2022-11-19T19:17:11.423Z,42.10
2022-11-19T19:22:14.231Z,42.12
2022-11-19T19:27:18.466Z,42.23
2022-11-19T19:32:21.321Z,42.31
2022-11-19T19:37:24.572Z,42.45
2022-11-19T19:42:29.199Z,42.75
2022-11-19T19:47:32.061Z,42.70
2022-11-19T19:52:34.985Z,42.23
2022-11-19T19:57:39.244Z,41.76
2022-11-19T20:02:42.189Z,41.84
2022-11-19T20:07:45.029Z,41.57
2022-11-19T20:13:06.695Z,41.78
2022-11-19T20:18:09.462Z,41.62
2022-11-19T20:23:12.262Z,41.54
2022-11-19T20:28:16.405Z,41.55
2022-11-19T20:33:19.384Z,41.42
2022-11-19T20:38:22.298Z,41.38
2022-11-19T20:43:48.832Z,41.26
2022-11-19T20:48:51.703Z,41.80
2022-11-19T20:53:54.551Z,41.75
2022-11-19T20:59:00.840Z,41.78
2022-11-19T21:04:03.772Z,41.97
2022-11-19T21:09:06.685Z,42.05
2022-11-19T21:14:10.851Z,42.03
2022-11-19T21:19:14.045Z,42.08
2022-11-19T21:24:17.022Z,42.37
2022-11-19T21:29:22.567Z,42.16
2022-11-19T21:34:25.720Z,42.33
2022-11-19T21:39:28.541Z,42.20
2022-11-19T21:44:32.682Z,41.96
2022-11-19T21:49:35.562Z,42.48
2022-11-19T21:54:38.421Z,42.60
2022-11-19T21:59:42.823Z,42.69
2022-11-19T22:04:45.824Z,42.79
2022-11-19T22:09:48.630Z,43.01
2022-11-19T22:14:52.768Z,42.93
2022-11-19T22:19:55.560Z,43.00
2022-11-19T22:24:58.998Z,43.25
2022-11-19T22:30:06.101Z,43.25
2022-11-19T22:35:09.729Z,43.36
2022-11-19T22:40:13.211Z,43.44
2022-11-19T22:45:17.485Z,43.47
2022-11-19T22:50:20.238Z,43.68
2022-11-19T22:55:23.061Z,43.74
2022-11-19T23:00:40.818Z,43.80
2022-11-19T23:05:47.118Z,43.94
2022-11-19T23:10:49.953Z,43.96
2022-11-19T23:16:01.566Z,44.13
2022-11-19T23:21:05.904Z,44.27
2022-11-19T23:26:09.556Z,44.35
2022-11-19T23:31:15.104Z,44.66
2022-11-19T23:36:18.485Z,44.38
2022-11-19T23:41:21.701Z,44.55
2022-11-19T23:46:26.499Z,44.49
2022-11-19T23:51:29.850Z,44.77
2022-11-19T23:56:33.335Z,44.83
